Station History

Weather Underground - logo

Station Historical Data
Daily Summary for December 30, 2017 Units:  English    Metric   Both
« Previous Day
Next Day »
Daily Weekly Monthly Yearly Custom
  High: Low: Average:
Temperature: 63.6 °F 33.5 °F 46.5 °F
Dew Point: 45.4 °F 31.6 °F 39.5 °F
Humidity: 95 % 48 % 78 %
Wind Speed: 3.5 mph 0.0 mph 0.3 mph
Wind Gust: 3.5 mph - -
Wind:- - West
Pressure: 30.20 in 30.05 in -
Precipitation: 0.00 in    
Historical Graphs
 
 
Tabular Data for December 30, 2017
Time Temperature Dew Point Pressure Wind Wind Speed Wind Gust Humidity Rainfall Rate (Hourly)
00:01 40.5 °F 37.2 °F 30.17 in Calm     88 % 0.00 in
00:06 40.6 °F 37.3 °F 30.17 in Calm     88 % 0.00 in
00:08 40.6 °F 37.3 °F 30.17 in Calm     88 % 0.00 in
00:13 40.6 °F 37.0 °F 30.17 in Calm     87 % 0.00 in
00:16 40.7 °F 37.1 °F 30.16 in SW 1.0 mph 1.0 mph 87 % 0.00 in
00:21 40.7 °F 37.1 °F 30.16 in WSW 1.2 mph   87 % 0.00 in
00:23 40.6 °F 37.0 °F 30.16 in Calm     87 % 0.00 in
00:29 40.5 °F 36.9 °F 30.16 in WSW 1.2 mph   87 % 0.00 in
00:34 40.4 °F 36.8 °F 30.16 in Calm     87 % 0.00 in
00:41 40.1 °F 36.5 °F 30.16 in Calm     87 % 0.00 in
00:42 40.0 °F 36.4 °F 30.16 in Calm     87 % 0.00 in
00:47 39.7 °F 36.1 °F 30.16 in Calm     87 % 0.00 in
00:48 39.6 °F 36.0 °F 30.16 in Calm     87 % 0.00 in
00:51 39.4 °F 35.9 °F 30.16 in Calm     87 % 0.00 in
00:53 39.2 °F 35.7 °F 30.16 in Calm     87 % 0.00 in
00:58 39.1 °F 36.1 °F 30.16 in Calm     89 % 0.00 in
01:00 39.1 °F 36.1 °F 30.16 in Calm     89 % 0.00 in
01:05 39.5 °F 37.1 °F 30.16 in Calm     91 % 0.00 in
01:07 39.7 °F 37.0 °F 30.15 in Calm     90 % 0.00 in
01:11 40.0 °F 37.3 °F 30.16 in Calm     90 % 0.00 in
01:16 40.2 °F 37.2 °F 30.16 in Calm     89 % 0.00 in
01:20 40.2 °F 36.9 °F 30.16 in Calm     88 % 0.00 in
01:25 40.0 °F 36.7 °F 30.16 in Calm     88 % 0.00 in
01:28 39.6 °F 36.0 °F 30.16 in Calm     87 % 0.00 in
01:33 38.6 °F 35.1 °F 30.16 in Calm     87 % 0.00 in
01:38 38.3 °F 35.3 °F 30.16 in Calm     89 % 0.00 in
01:39 38.3 °F 35.6 °F 30.16 in Calm     90 % 0.00 in
01:44 38.7 °F 36.3 °F 30.16 in Calm     91 % 0.00 in
01:49 38.7 °F 36.0 °F 30.16 in Calm     90 % 0.00 in
01:52 38.9 °F 36.2 °F 30.16 in West 1.2 mph   90 % 0.00 in
01:53 39.1 °F 36.7 °F 30.16 in Calm     91 % 0.00 in
01:58 39.7 °F 37.0 °F 30.16 in Calm     90 % 0.00 in
02:02 40.0 °F 37.0 °F 30.16 in Calm     89 % 0.00 in
02:03 40.1 °F 37.1 °F 30.16 in Calm     89 % 0.00 in
02:08 40.4 °F 37.1 °F 30.16 in West 1.2 mph   88 % 0.00 in
02:12 40.6 °F 37.3 °F 30.16 in WNW 1.2 mph   88 % 0.00 in
02:13 40.6 °F 37.0 °F 30.16 in NNW 1.2 mph 1.2 mph 87 % 0.00 in
02:18 40.7 °F 37.1 °F 30.16 in Calm     87 % 0.00 in
02:21 40.8 °F 37.2 °F 30.16 in Calm     87 % 0.00 in
02:26 40.9 °F 37.3 °F 30.16 in Calm     87 % 0.00 in
02:28 41.0 °F 37.4 °F 30.16 in Calm     87 % 0.00 in
02:33 40.3 °F 36.4 °F 30.16 in Calm     86 % 0.00 in
02:34 40.2 °F 36.3 °F 30.16 in Calm     86 % 0.00 in
02:39 39.9 °F 36.3 °F 30.17 in Calm     87 % 0.00 in
02:40 39.9 °F 36.3 °F 30.16 in Calm     87 % 0.00 in
02:45 39.7 °F 36.1 °F 30.16 in Calm     87 % 0.00 in
02:47 39.4 °F 35.6 °F 30.16 in Calm     86 % 0.00 in
02:50 38.9 °F 35.1 °F 30.16 in Calm     86 % 0.00 in
02:55 38.3 °F 34.8 °F 30.16 in Calm     87 % 0.00 in
03:00 37.7 °F 34.2 °F 30.17 in Calm     87 % 0.00 in
03:01 37.6 °F 34.1 °F 30.17 in Calm     87 % 0.00 in
03:06 37.1 °F 33.9 °F 30.16 in Calm     88 % 0.00 in
03:12 36.7 °F 33.8 °F 30.17 in Calm     89 % 0.00 in
03:17 36.3 °F 33.4 °F 30.16 in Calm     89 % 0.00 in
03:21 36.1 °F 33.5 °F 30.16 in Calm     90 % 0.00 in
03:26 35.9 °F 33.3 °F 30.16 in Calm     90 % 0.00 in
03:27 35.9 °F 33.3 °F 30.17 in Calm     90 % 0.00 in
03:32 35.7 °F 33.1 °F 30.17 in Calm     90 % 0.00 in
03:36 35.5 °F 32.9 °F 30.16 in Calm     90 % 0.00 in
03:39 35.3 °F 32.7 °F 30.16 in Calm     90 % 0.00 in
03:44 35.1 °F 32.7 °F 30.16 in Calm     91 % 0.00 in
03:49 35.0 °F 32.6 °F 30.16 in Calm     91 % 0.00 in
03:50 35.0 °F 32.6 °F 30.16 in Calm     91 % 0.00 in
03:55 35.1 °F 33.0 °F 30.17 in Calm     92 % 0.00 in
03:56 35.1 °F 33.0 °F 30.17 in Calm     92 % 0.00 in
04:01 35.1 °F 33.0 °F 30.17 in Calm     92 % 0.00 in
04:02 35.1 °F 33.0 °F 30.17 in Calm     92 % 0.00 in
04:06 35.2 °F 33.1 °F 30.17 in Calm     92 % 0.00 in
04:11 35.1 °F 33.0 °F 30.17 in Calm     92 % 0.00 in
04:16 35.2 °F 33.1 °F 30.16 in Calm     92 % 0.00 in
04:17 35.2 °F 33.1 °F 30.17 in Calm     92 % 0.00 in
04:22 35.2 °F 33.4 °F 30.17 in Calm     93 % 0.00 in
04:27 35.4 °F 33.6 °F 30.16 in Calm     93 % 0.00 in
04:31 35.6 °F 33.8 °F 30.16 in Calm     93 % 0.00 in
04:32 35.6 °F 33.8 °F 30.16 in Calm     93 % 0.00 in
04:37 35.7 °F 33.9 °F 30.16 in Calm     93 % 0.00 in
04:41 35.8 °F 34.0 °F 30.16 in Calm     93 % 0.00 in
04:46 36.0 °F 34.2 °F 30.16 in Calm     93 % 0.00 in
04:51 36.2 °F 34.4 °F 30.16 in Calm     93 % 0.00 in
04:52 36.3 °F 34.5 °F 30.16 in Calm     93 % 0.00 in
04:57 36.3 °F 34.5 °F 30.16 in Calm     93 % 0.00 in
05:02 36.4 °F 34.3 °F 30.16 in Calm     92 % 0.00 in
05:04 36.4 °F 34.3 °F 30.16 in Calm     92 % 0.00 in
05:08 36.3 °F 34.2 °F 30.16 in Calm     92 % 0.00 in
05:13 36.3 °F 34.2 °F 30.16 in Calm     92 % 0.00 in
05:14 36.4 °F 34.3 °F 30.16 in Calm     92 % 0.00 in
05:19 36.2 °F 34.1 °F 30.16 in Calm     92 % 0.00 in
05:24 36.3 °F 34.2 °F 30.16 in Calm     92 % 0.00 in
05:25 36.3 °F 34.2 °F 30.16 in Calm     92 % 0.00 in
05:30 36.2 °F 34.1 °F 30.16 in Calm     92 % 0.00 in
05:32 36.1 °F 34.0 °F 30.16 in Calm     92 % 0.00 in
05:36 36.0 °F 33.9 °F 30.16 in Calm     92 % 0.00 in
05:37 36.0 °F 33.9 °F 30.16 in Calm     92 % 0.00 in
05:42 35.7 °F 33.6 °F 30.16 in Calm     92 % 0.00 in
05:43 35.7 °F 33.6 °F 30.16 in Calm     92 % 0.00 in
05:45 35.6 °F 33.5 °F 30.16 in Calm     92 % 0.00 in
05:49 35.4 °F 33.3 °F 30.16 in Calm     92 % 0.00 in
05:50 35.4 °F 33.3 °F 30.16 in Calm     92 % 0.00 in
05:54 35.4 °F 33.3 °F 30.16 in Calm     92 % 0.00 in
05:59 35.3 °F 33.2 °F 30.16 in Calm     92 % 0.00 in
06:02 35.4 °F 33.3 °F 30.16 in Calm     92 % 0.00 in
06:07 35.3 °F 33.2 °F 30.16 in Calm     92 % 0.00 in
06:11 35.0 °F 32.9 °F 30.16 in Calm     92 % 0.00 in
06:16 34.6 °F 32.5 °F 30.16 in Calm     92 % 0.00 in
06:17 34.6 °F 32.5 °F 30.16 in Calm     92 % 0.00 in
06:22 34.5 °F 32.4 °F 30.17 in Calm     92 % 0.00 in
06:23 34.4 °F 32.3 °F 30.17 in Calm     92 % 0.00 in
06:28 34.3 °F 32.2 °F 30.17 in Calm     92 % 0.00 in
06:29 34.3 °F 32.2 °F 30.17 in Calm     92 % 0.00 in
06:34 34.0 °F 31.9 °F 30.17 in Calm     92 % 0.00 in
06:36 33.9 °F 31.8 °F 30.17 in Calm     92 % 0.00 in
06:41 33.7 °F 31.6 °F 30.17 in Calm     92 % 0.00 in
06:46 33.6 °F 31.8 °F 30.17 in Calm     93 % 0.00 in
06:47 33.6 °F 31.8 °F 30.17 in Calm     93 % 0.00 in
06:52 33.7 °F 31.9 °F 30.17 in Calm     93 % 0.00 in
06:53 33.7 °F 31.9 °F 30.17 in Calm     93 % 0.00 in
06:58 33.6 °F 31.8 °F 30.17 in Calm     93 % 0.00 in
07:00 33.5 °F 31.7 °F 30.17 in Calm     93 % 0.00 in
07:05 33.6 °F 31.8 °F 30.17 in Calm     93 % 0.00 in
07:06 33.6 °F 31.8 °F 30.17 in Calm     93 % 0.00 in
07:11 33.8 °F 32.3 °F 30.17 in Calm     94 % 0.00 in
07:16 33.8 °F 32.0 °F 30.17 in Calm     93 % 0.00 in
07:19 33.7 °F 31.9 °F 30.17 in Calm     93 % 0.00 in
07:22 33.7 °F 31.9 °F 30.17 in Calm     93 % 0.00 in
07:27 33.6 °F 31.8 °F 30.17 in Calm     93 % 0.00 in
07:28 33.6 °F 31.8 °F 30.17 in Calm     93 % 0.00 in
07:33 33.6 °F 31.8 °F 30.17 in Calm     93 % 0.00 in
07:36 33.7 °F 31.9 °F 30.17 in Calm     93 % 0.00 in
07:37 33.7 °F 31.9 °F 30.17 in Calm     93 % 0.00 in
07:43 33.9 °F 32.4 °F 30.17 in Calm     94 % 0.00 in
07:44 33.9 °F 32.4 °F 30.17 in Calm     94 % 0.00 in
07:49 34.1 °F 32.6 °F 30.17 in Calm     94 % 0.00 in
07:50 34.1 °F 32.6 °F 30.17 in Calm     94 % 0.00 in
07:55 34.3 °F 32.8 °F 30.17 in Calm     94 % 0.00 in
07:56 34.4 °F 32.9 °F 30.17 in Calm     94 % 0.00 in
08:01 34.7 °F 33.2 °F 30.17 in Calm     94 % 0.00 in
08:06 35.6 °F 34.0 °F 30.17 in Calm     94 % 0.00 in
08:08 36.1 °F 34.8 °F 30.17 in Calm     95 % 0.00 in
08:13 37.6 °F 36.3 °F 30.17 in Calm     95 % 0.00 in
08:14 37.9 °F 36.6 °F 30.17 in Calm     95 % 0.00 in
08:18 38.8 °F 37.2 °F 30.17 in Calm     94 % 0.00 in
08:23 40.0 °F 37.9 °F 30.17 in Calm     92 % 0.00 in
08:26 40.8 °F 38.1 °F 30.17 in Calm     90 % 0.00 in
08:30 41.9 °F 38.3 °F 30.17 in Calm     87 % 0.00 in
08:31 42.0 °F 38.4 °F 30.17 in Calm     87 % 0.00 in
08:36 41.9 °F 38.0 °F 30.17 in Calm     86 % 0.00 in
08:37 41.8 °F 37.9 °F 30.17 in Calm     86 % 0.00 in
08:42 42.0 °F 38.1 °F 30.18 in Calm     86 % 0.00 in
08:43 42.1 °F 38.2 °F 30.18 in Calm     86 % 0.00 in
08:45 42.3 °F 38.4 °F 30.18 in Calm     86 % 0.00 in
08:49 42.9 °F 39.3 °F 30.18 in SSW 1.0 mph 1.0 mph 87 % 0.00 in
08:54 44.3 °F 40.1 °F 30.19 in Calm     85 % 0.00 in
08:55 44.5 °F 40.3 °F 30.19 in Calm     85 % 0.00 in
08:58 45.2 °F 40.7 °F 30.19 in Calm   0.1 mph 84 % 0.00 in
09:03 45.8 °F 40.6 °F 30.19 in Calm     82 % 0.00 in
09:07 46.4 °F 40.9 °F 30.19 in SSE 1.2 mph 1.2 mph 81 % 0.00 in
09:09 46.5 °F 40.3 °F 30.19 in SSE 1.2 mph   79 % 0.00 in
09:14 46.7 °F 40.2 °F 30.19 in Calm     78 % 0.00 in
09:15 46.5 °F 40.0 °F 30.19 in Calm     78 % 0.00 in
09:21 46.1 °F 40.3 °F 30.19 in Calm     80 % 0.00 in
09:23 46.0 °F 39.9 °F 30.19 in Calm     79 % 0.00 in
09:28 46.4 °F 40.6 °F 30.19 in Calm     80 % 0.00 in
09:30 46.7 °F 40.5 °F 30.19 in Calm     79 % 0.00 in
09:35 47.3 °F 40.8 °F 30.19 in ENE 1.2 mph 1.2 mph 78 % 0.00 in
09:37 47.4 °F 40.9 °F 30.19 in Calm     78 % 0.00 in
09:38 47.5 °F 41.0 °F 30.19 in Calm     78 % 0.00 in
09:43 48.0 °F 41.1 °F 30.19 in SE 1.2 mph   77 % 0.00 in
09:46 48.2 °F 41.0 °F 30.19 in SE 1.0 mph   76 % 0.00 in
09:47 48.4 °F 41.2 °F 30.19 in SE 1.2 mph   76 % 0.00 in
09:52 49.2 °F 41.6 °F 30.20 in Calm     75 % 0.00 in
09:53 49.4 °F 41.8 °F 30.20 in Calm     75 % 0.00 in
09:54 49.4 °F 41.5 °F 30.20 in Calm     74 % 0.00 in
09:59 49.6 °F 41.7 °F 30.19 in Calm     74 % 0.00 in
10:03 50.1 °F 42.1 °F 30.19 in Calm     74 % 0.00 in
10:08 50.3 °F 41.6 °F 30.18 in WNW 1.2 mph   72 % 0.00 in
10:09 50.4 °F 41.3 °F 30.18 in Calm     71 % 0.00 in
10:14 50.8 °F 42.5 °F 30.18 in Calm     73 % 0.00 in
10:15 50.9 °F 42.2 °F 30.18 in Calm     72 % 0.00 in
10:16 51.0 °F 42.3 °F 30.18 in Calm     72 % 0.00 in
10:21 52.1 °F 42.6 °F 30.18 in East 1.2 mph 1.2 mph 70 % 0.00 in
10:26 52.6 °F 42.3 °F 30.18 in Calm     68 % 0.00 in
10:32 53.0 °F 41.9 °F 30.18 in WNW 1.2 mph 1.2 mph 66 % 0.00 in
10:34 53.1 °F 42.4 °F 30.18 in Calm     67 % 0.00 in
10:39 53.6 °F 42.5 °F 30.17 in Calm     66 % 0.00 in
10:45 54.1 °F 43.0 °F 30.17 in Calm     66 % 0.00 in
10:46 54.3 °F 42.8 °F 30.17 in Calm     65 % 0.00 in
10:48 54.6 °F 43.5 °F 30.16 in Calm     66 % 0.00 in
10:51 54.8 °F 42.9 °F 30.16 in Calm     64 % 0.00 in
10:52 54.9 °F 42.9 °F 30.16 in Calm     64 % 0.00 in
10:56 55.0 °F 42.6 °F 30.16 in Calm     63 % 0.00 in
11:00 55.1 °F 42.3 °F 30.16 in Calm     62 % 0.00 in
11:03 54.9 °F 42.1 °F 30.16 in West 1.2 mph   62 % 0.00 in
11:08 54.9 °F 42.5 °F 30.15 in Calm     63 % 0.00 in
11:09 54.9 °F 42.9 °F 30.15 in Calm     64 % 0.00 in
11:14 55.0 °F 42.6 °F 30.15 in NW 1.2 mph 1.2 mph 63 % 0.00 in
11:15 55.0 °F 42.6 °F 30.15 in Calm     63 % 0.00 in
11:20 55.1 °F 42.7 °F 30.15 in Calm     63 % 0.00 in
11:21 55.1 °F 43.1 °F 30.15 in Calm     64 % 0.00 in
11:26 55.5 °F 42.7 °F 30.15 in NW 1.2 mph 1.2 mph 62 % 0.00 in
11:31 55.8 °F 43.0 °F 30.14 in WNW 1.2 mph 1.2 mph 62 % 0.00 in
11:35 56.1 °F 43.3 °F 30.14 in Calm     62 % 0.00 in
11:39 56.5 °F 43.6 °F 30.14 in WNW 1.0 mph   62 % 0.00 in
11:44 57.0 °F 43.2 °F 30.14 in WNW 1.2 mph 1.2 mph 60 % 0.00 in
11:46 57.2 °F 43.9 °F 30.13 in WNW 1.0 mph 1.0 mph 61 % 0.00 in
11:51 57.8 °F 44.0 °F 30.13 in NW 1.0 mph 1.0 mph 60 % 0.00 in
11:56 57.9 °F 44.1 °F 30.13 in Calm   0.1 mph 60 % 0.00 in
11:57 57.9 °F 43.7 °F 30.13 in WNW 1.2 mph 1.2 mph 59 % 0.00 in
11:59 57.9 °F 43.7 °F 30.13 in Calm     59 % 0.00 in
12:03 58.0 °F 44.2 °F 30.13 in Calm     60 % 0.00 in
12:08 58.3 °F 43.6 °F 30.12 in NW 2.3 mph 2.3 mph 58 % 0.00 in
12:11 58.4 °F 43.2 °F 30.12 in NW 1.2 mph 1.2 mph 57 % 0.00 in
12:15 58.6 °F 43.4 °F 30.12 in Calm     57 % 0.00 in
12:20 59.0 °F 43.3 °F 30.12 in WNW 1.2 mph 1.2 mph 56 % 0.00 in
12:22 59.2 °F 43.5 °F 30.12 in WNW 2.3 mph 2.3 mph 56 % 0.00 in
12:27 59.7 °F 44.0 °F 30.12 in NW 2.3 mph 2.3 mph 56 % 0.00 in
12:29 59.8 °F 43.6 °F 30.12 in NW 2.3 mph 2.3 mph 55 % 0.00 in
12:34 59.8 °F 43.6 °F 30.12 in NW 1.2 mph 1.2 mph 55 % 0.00 in
12:38 59.9 °F 44.2 °F 30.12 in NW 2.3 mph 2.3 mph 56 % 0.00 in
12:40 60.0 °F 43.8 °F 30.11 in North 3.5 mph 3.5 mph 55 % 0.00 in
12:44 60.1 °F 43.9 °F 30.11 in NW 1.2 mph 1.2 mph 55 % 0.00 in
12:46 60.1 °F 44.3 °F 30.11 in Calm     56 % 0.00 in
12:50 60.3 °F 44.1 °F 30.11 in WNW 2.3 mph 2.3 mph 55 % 0.00 in
12:51 60.3 °F 44.1 °F 30.11 in WNW 2.3 mph 2.3 mph 55 % 0.00 in
12:56 60.4 °F 43.7 °F 30.11 in NW 2.0 mph 2.0 mph 54 % 0.00 in
12:58 60.5 °F 43.8 °F 30.10 in WSW 2.3 mph 2.3 mph 54 % 0.00 in
13:03 60.6 °F 44.3 °F 30.10 in Calm     55 % 0.00 in
13:06 60.8 °F 44.5 °F 30.10 in NW 2.3 mph 2.3 mph 55 % 0.00 in
13:15 60.9 °F 43.6 °F 30.10 in NNE 2.3 mph 2.3 mph 53 % 0.00 in
13:16 60.9 °F 43.6 °F 30.10 in NNE 2.3 mph 2.3 mph 53 % 0.00 in
13:17 60.9 °F 43.6 °F 30.10 in NNE 2.3 mph 2.3 mph 53 % 0.00 in
13:22 60.9 °F 43.6 °F 30.09 in Calm     53 % 0.00 in
13:24 60.9 °F 43.6 °F 30.09 in Calm     53 % 0.00 in
13:27 61.4 °F 44.1 °F 30.09 in Calm     53 % 0.00 in
13:30 61.6 °F 44.3 °F 30.09 in WNW 1.2 mph 1.2 mph 53 % 0.00 in
13:35 61.7 °F 43.9 °F 30.09 in NW 1.2 mph 1.2 mph 52 % 0.00 in
13:40 62.0 °F 44.2 °F 30.09 in North 2.0 mph 2.0 mph 52 % 0.00 in
13:41 62.0 °F 44.2 °F 30.09 in NW 2.3 mph 2.3 mph 52 % 0.00 in
13:44 62.1 °F 44.8 °F 30.08 in Calm     53 % 0.00 in
13:47 62.2 °F 44.3 °F 30.08 in NW 1.2 mph 1.2 mph 52 % 0.00 in
13:50 62.5 °F 44.1 °F 30.08 in WNW 2.3 mph 2.3 mph 51 % 0.00 in
13:55 62.8 °F 44.4 °F 30.08 in NW 1.0 mph 1.3 mph 51 % 0.00 in
13:56 62.8 °F 44.4 °F 30.08 in NW 3.5 mph 3.5 mph 51 % 0.00 in
14:01 62.9 °F 43.4 °F 30.07 in NW 3.5 mph 3.5 mph 49 % 0.00 in
14:04 63.0 °F 44.1 °F 30.08 in NW 2.3 mph 2.3 mph 50 % 0.00 in
14:07 63.2 °F 44.2 °F 30.08 in Calm     50 % 0.00 in
14:12 63.6 °F 44.1 °F 30.07 in NW 2.0 mph 2.0 mph 49 % 0.00 in
14:13 63.6 °F 43.5 °F 30.07 in NW 3.5 mph 3.5 mph 48 % 0.00 in
14:18 63.4 °F 43.9 °F 30.07 in Calm     49 % 0.00 in
14:22 63.3 °F 43.8 °F 30.06 in NW 1.2 mph 1.2 mph 49 % 0.00 in
14:27 63.3 °F 43.8 °F 30.06 in NW 2.3 mph 2.3 mph 49 % 0.00 in
14:28 63.3 °F 43.8 °F 30.06 in NW 1.2 mph 1.2 mph 49 % 0.00 in
14:33 63.1 °F 43.6 °F 30.06 in NW 1.2 mph 1.2 mph 49 % 0.00 in
14:37 63.2 °F 43.7 °F 30.06 in WNW 2.3 mph 2.3 mph 49 % 0.00 in
14:40 63.1 °F 44.2 °F 30.06 in NW 2.3 mph 2.3 mph 50 % 0.00 in
14:43 63.1 °F 44.2 °F 30.06 in WNW 1.2 mph 1.2 mph 50 % 0.00 in
14:47 63.1 °F 44.2 °F 30.06 in NNW 1.2 mph 1.2 mph 50 % 0.00 in
14:48 63.1 °F 44.2 °F 30.06 in NW 1.2 mph 1.2 mph 50 % 0.00 in
14:54 62.9 °F 44.0 °F 30.06 in Calm     50 % 0.00 in
14:55 62.9 °F 44.0 °F 30.06 in WNW 1.2 mph 1.2 mph 50 % 0.00 in
14:59 62.7 °F 44.3 °F 30.06 in WNW 1.2 mph 1.2 mph 51 % 0.00 in
15:01 62.6 °F 43.7 °F 30.06 in WNW 1.2 mph   50 % 0.00 in
15:04 62.5 °F 44.1 °F 30.06 in NW 1.2 mph 1.2 mph 51 % 0.00 in
15:07 62.4 °F 43.5 °F 30.06 in NW 1.2 mph 1.2 mph 50 % 0.00 in
15:09 62.4 °F 43.5 °F 30.06 in NW 1.2 mph 1.2 mph 50 % 0.00 in
15:14 62.4 °F 44.5 °F 30.06 in NW 1.2 mph   52 % 0.00 in
15:15 62.4 °F 44.5 °F 30.06 in Calm     52 % 0.00 in
15:20 62.3 °F 45.4 °F 30.06 in Calm     54 % 0.00 in
15:25 62.1 °F 44.3 °F 30.06 in WNW 1.2 mph 1.2 mph 52 % 0.00 in
15:26 62.1 °F 44.3 °F 30.06 in NW 1.2 mph 1.2 mph 52 % 0.00 in
15:31 61.9 °F 44.6 °F 30.06 in Calm     53 % 0.00 in
15:33 61.9 °F 44.6 °F 30.06 in Calm     53 % 0.00 in
15:35 61.7 °F 44.4 °F 30.06 in Calm     53 % 0.00 in
15:39 61.5 °F 44.7 °F 30.06 in Calm     54 % 0.00 in
15:42 61.3 °F 45.0 °F 30.06 in Calm     55 % 0.00 in
15:47 60.9 °F 45.1 °F 30.06 in Calm     56 % 0.00 in
15:48 60.8 °F 45.0 °F 30.06 in Calm     56 % 0.00 in
15:51 60.6 °F 44.8 °F 30.06 in NW 1.2 mph   56 % 0.00 in
15:53 60.4 °F 45.1 °F 30.06 in Calm     57 % 0.00 in
15:58 60.0 °F 44.7 °F 30.06 in WNW 1.2 mph 1.2 mph 57 % 0.00 in
15:59 59.9 °F 44.6 °F 30.06 in Calm     57 % 0.00 in
16:04 59.6 °F 44.8 °F 30.06 in WNW 1.2 mph   58 % 0.00 in
16:09 59.3 °F 44.5 °F 30.05 in Calm     58 % 0.00 in
16:13 59.2 °F 44.4 °F 30.05 in Calm     58 % 0.00 in
16:14 59.2 °F 44.4 °F 30.05 in Calm     58 % 0.00 in
16:19 59.0 °F 44.2 °F 30.05 in Calm     58 % 0.00 in
16:20 59.0 °F 44.2 °F 30.05 in Calm     58 % 0.00 in
16:25 58.5 °F 44.7 °F 30.05 in Calm     60 % 0.00 in
16:26 58.4 °F 44.6 °F 30.05 in Calm     60 % 0.00 in
16:30 57.8 °F 44.4 °F 30.05 in Calm     61 % 0.00 in
16:36 57.2 °F 44.3 °F 30.06 in Calm     62 % 0.00 in
16:40 56.7 °F 44.2 °F 30.06 in Calm     63 % 0.00 in
16:43 56.3 °F 44.3 °F 30.06 in Calm     64 % 0.00 in
16:47 55.8 °F 43.8 °F 30.06 in Calm     64 % 0.00 in
16:49 55.5 °F 43.9 °F 30.06 in Calm     65 % 0.00 in
16:52 55.2 °F 44.0 °F 30.06 in Calm     66 % 0.00 in
16:57 54.7 °F 44.0 °F 30.06 in Calm     67 % 0.00 in
16:58 54.6 °F 43.9 °F 30.06 in Calm     67 % 0.00 in
17:03 54.1 °F 43.8 °F 30.07 in Calm     68 % 0.00 in
17:05 54.0 °F 43.7 °F 30.07 in Calm     68 % 0.00 in
17:06 53.9 °F 43.6 °F 30.07 in Calm     68 % 0.00 in
17:10 53.6 °F 43.7 °F 30.07 in Calm     69 % 0.00 in
17:15 53.1 °F 43.6 °F 30.06 in Calm     70 % 0.00 in
17:17 52.9 °F 43.4 °F 30.06 in Calm     70 % 0.00 in
17:20 52.7 °F 43.6 °F 30.06 in Calm     71 % 0.00 in
17:23 52.4 °F 43.6 °F 30.07 in Calm     72 % 0.00 in
17:28 51.9 °F 43.5 °F 30.07 in Calm     73 % 0.00 in
17:29 51.7 °F 43.3 °F 30.07 in Calm     73 % 0.00 in
17:34 51.4 °F 43.4 °F 30.06 in Calm     74 % 0.00 in
17:36 51.4 °F 43.4 °F 30.07 in Calm     74 % 0.00 in
17:37 51.3 °F 43.6 °F 30.07 in Calm     75 % 0.00 in
17:42 51.0 °F 43.4 °F 30.07 in Calm     75 % 0.00 in
17:47 50.7 °F 43.4 °F 30.07 in Calm     76 % 0.00 in
17:48 50.7 °F 43.4 °F 30.07 in Calm     76 % 0.00 in
17:53 50.4 °F 43.1 °F 30.07 in Calm     76 % 0.00 in
17:55 50.3 °F 43.4 °F 30.07 in Calm     77 % 0.00 in
18:00 49.9 °F 43.0 °F 30.07 in Calm     77 % 0.00 in
18:02 49.8 °F 42.9 °F 30.07 in Calm     77 % 0.00 in
18:03 49.7 °F 42.8 °F 30.07 in Calm     77 % 0.00 in
18:08 49.4 °F 42.5 °F 30.07 in Calm     77 % 0.00 in
18:09 49.4 °F 42.8 °F 30.07 in Calm     78 % 0.00 in
18:14 49.3 °F 42.7 °F 30.07 in Calm     78 % 0.00 in
18:15 49.3 °F 42.7 °F 30.07 in Calm     78 % 0.00 in
18:18 49.2 °F 43.0 °F 30.07 in Calm     79 % 0.00 in
18:20 49.1 °F 42.5 °F 30.06 in Calm     78 % 0.00 in
18:25 48.8 °F 42.6 °F 30.06 in Calm     79 % 0.00 in
18:26 48.7 °F 42.5 °F 30.07 in Calm     79 % 0.00 in
18:31 48.4 °F 42.2 °F 30.07 in Calm     79 % 0.00 in
18:32 48.3 °F 42.1 °F 30.07 in Calm     79 % 0.00 in
18:37 47.8 °F 41.9 °F 30.07 in Calm     80 % 0.00 in
18:40 47.6 °F 41.7 °F 30.07 in Calm     80 % 0.00 in
18:45 47.0 °F 41.5 °F 30.07 in Calm     81 % 0.00 in
18:46 47.0 °F 41.5 °F 30.07 in Calm     81 % 0.00 in
18:47 46.9 °F 41.7 °F 30.07 in Calm     82 % 0.00 in
18:52 46.5 °F 41.3 °F 30.07 in Calm     82 % 0.00 in
18:53 46.5 °F 41.3 °F 30.07 in Calm     82 % 0.00 in
18:54 46.4 °F 41.2 °F 30.07 in Calm     82 % 0.00 in
18:59 46.1 °F 40.9 °F 30.07 in Calm     82 % 0.00 in
19:04 45.8 °F 40.9 °F 30.07 in Calm     83 % 0.00 in
19:06 45.6 °F 40.7 °F 30.07 in Calm     83 % 0.00 in
19:12 45.6 °F 41.0 °F 30.07 in Calm     84 % 0.00 in
19:21 45.7 °F 40.8 °F 30.07 in Calm     83 % 0.00 in
19:25 45.5 °F 40.9 °F 30.07 in Calm     84 % 0.00 in
19:30 45.2 °F 40.7 °F 30.07 in Calm     84 % 0.00 in
19:31 45.2 °F 40.7 °F 30.08 in Calm     84 % 0.00 in
19:36 44.9 °F 40.7 °F 30.08 in Calm     85 % 0.00 in
19:39 44.7 °F 40.5 °F 30.08 in Calm     85 % 0.00 in
19:43 44.5 °F 40.3 °F 30.08 in Calm     85 % 0.00 in
19:48 44.4 °F 40.5 °F 30.08 in Calm     86 % 0.00 in
19:53 44.3 °F 40.7 °F 30.07 in Calm     87 % 0.00 in
19:54 44.3 °F 40.7 °F 30.07 in Calm     87 % 0.00 in
19:55 44.3 °F 40.7 °F 30.07 in Calm     87 % 0.00 in
20:00 44.2 °F 40.6 °F 30.07 in Calm     87 % 0.00 in
20:01 44.2 °F 40.6 °F 30.08 in Calm     87 % 0.00 in
20:06 44.1 °F 40.5 °F 30.08 in Calm     87 % 0.00 in
20:09 44.1 °F 40.5 °F 30.08 in Calm     87 % 0.00 in
20:14 44.1 °F 40.5 °F 30.08 in Calm     87 % 0.00 in
20:15 44.1 °F 40.5 °F 30.08 in Calm     87 % 0.00 in
20:20 44.1 °F 40.5 °F 30.08 in Calm     87 % 0.00 in
20:23 44.1 °F 40.5 °F 30.09 in Calm     87 % 0.00 in
20:28 43.9 °F 40.3 °F 30.09 in Calm     87 % 0.00 in
20:29 43.9 °F 40.3 °F 30.09 in Calm     87 % 0.00 in
20:31 43.9 °F 40.3 °F 30.09 in Calm     87 % 0.00 in
20:36 43.8 °F 40.5 °F 30.09 in Calm     88 % 0.00 in
20:37 43.9 °F 40.6 °F 30.09 in Calm     88 % 0.00 in
20:42 43.8 °F 40.5 °F 30.09 in Calm     88 % 0.00 in
20:47 44.0 °F 40.7 °F 30.09 in Calm     88 % 0.00 in
20:50 44.2 °F 40.9 °F 30.09 in Calm     88 % 0.00 in
20:55 44.5 °F 40.9 °F 30.09 in Calm     87 % 0.00 in
20:57 44.5 °F 40.9 °F 30.09 in Calm     87 % 0.00 in
20:58 44.5 °F 40.9 °F 30.09 in Calm     87 % 0.00 in
21:03 44.5 °F 40.6 °F 30.09 in Calm     86 % 0.00 in
21:07 44.4 °F 40.5 °F 30.09 in Calm     86 % 0.00 in
21:12 44.1 °F 40.5 °F 30.09 in Calm     87 % 0.00 in
21:13 44.1 °F 40.5 °F 30.08 in Calm     87 % 0.00 in
21:14 44.1 °F 40.5 °F 30.08 in Calm     87 % 0.00 in
21:18 44.1 °F 40.5 °F 30.09 in Calm     87 % 0.00 in
21:21 44.1 °F 40.5 °F 30.09 in Calm     87 % 0.00 in
21:23 44.1 °F 40.5 °F 30.08 in Calm     87 % 0.00 in
21:28 44.1 °F 40.5 °F 30.08 in Calm     87 % 0.00 in
21:29 44.1 °F 40.5 °F 30.08 in Calm     87 % 0.00 in
21:34 44.1 °F 40.5 °F 30.09 in Calm     87 % 0.00 in
21:35 44.1 °F 40.5 °F 30.09 in Calm     87 % 0.00 in
21:40 44.3 °F 40.7 °F 30.09 in Calm     87 % 0.00 in
21:41 44.3 °F 40.7 °F 30.09 in Calm     87 % 0.00 in
21:46 44.4 °F 40.5 °F 30.09 in Calm     86 % 0.00 in
21:51 44.2 °F 40.3 °F 30.09 in Calm     86 % 0.00 in
21:52 44.2 °F 40.3 °F 30.09 in Calm     86 % 0.00 in
21:55 44.1 °F 40.2 °F 30.09 in Calm     86 % 0.00 in
21:57 44.0 °F 40.1 °F 30.09 in Calm     86 % 0.00 in
22:02 43.6 °F 39.4 °F 30.08 in Calm     85 % 0.00 in
22:05 43.1 °F 38.9 °F 30.08 in Calm     85 % 0.00 in
22:06 43.1 °F 39.2 °F 30.08 in Calm     86 % 0.00 in
22:11 42.7 °F 39.1 °F 30.08 in Calm     87 % 0.00 in
22:13 42.7 °F 39.1 °F 30.08 in Calm     87 % 0.00 in
22:16 42.6 °F 39.0 °F 30.08 in Calm     87 % 0.00 in
22:21 42.3 °F 38.7 °F 30.08 in Calm     87 % 0.00 in
22:22 42.3 °F 38.7 °F 30.08 in Calm     87 % 0.00 in
22:27 42.1 °F 38.8 °F 30.08 in Calm     88 % 0.00 in
22:28 42.1 °F 38.8 °F 30.08 in Calm     88 % 0.00 in
22:33 42.0 °F 39.0 °F 30.08 in Calm     89 % 0.00 in
22:38 42.1 °F 39.1 °F 30.08 in Calm     89 % 0.00 in
22:40 42.1 °F 39.1 °F 30.08 in Calm     89 % 0.00 in
22:42 42.2 °F 39.2 °F 30.08 in Calm     89 % 0.00 in
22:45 42.1 °F 39.1 °F 30.08 in Calm     89 % 0.00 in
22:49 42.2 °F 39.2 °F 30.08 in Calm     89 % 0.00 in
22:51 42.2 °F 39.2 °F 30.08 in Calm     89 % 0.00 in
22:56 42.3 °F 39.6 °F 30.08 in Calm     90 % 0.00 in
22:58 42.3 °F 39.6 °F 30.08 in Calm     90 % 0.00 in
23:03 42.5 °F 39.8 °F 30.08 in Calm     90 % 0.00 in
23:05 42.6 °F 39.9 °F 30.08 in Calm     90 % 0.00 in
23:10 42.9 °F 39.9 °F 30.08 in Calm     89 % 0.00 in
23:11 43.0 °F 40.0 °F 30.08 in Calm     89 % 0.00 in
23:13 43.0 °F 39.7 °F 30.08 in Calm     88 % 0.00 in
23:17 43.0 °F 39.7 °F 30.08 in Calm     88 % 0.00 in
23:22 42.7 °F 38.8 °F 30.08 in Calm     86 % 0.00 in
23:23 42.5 °F 38.6 °F 30.08 in Calm     86 % 0.00 in
23:27 42.0 °F 38.4 °F 30.08 in Calm     87 % 0.00 in
23:31 41.8 °F 38.5 °F 30.07 in Calm     88 % 0.00 in
23:33 41.9 °F 38.6 °F 30.07 in Calm     88 % 0.00 in
23:36 42.1 °F 38.8 °F 30.08 in Calm     88 % 0.00 in
23:39 42.2 °F 38.9 °F 30.08 in Calm     88 % 0.00 in
23:44 42.3 °F 39.0 °F 30.07 in Calm     88 % 0.00 in
23:45 42.3 °F 39.0 °F 30.07 in Calm     88 % 0.00 in
23:50 42.4 °F 39.1 °F 30.07 in Calm     88 % 0.00 in
23:51 42.4 °F 39.1 °F 30.07 in Calm     88 % 0.00 in
23:56 42.4 °F 38.8 °F 30.06 in Calm     87 % 0.00 in
23:59 42.4 °F 38.8 °F 30.06 in Calm     87 % 0.00 in
Park Place, Exeter, Tulare County, California, USA
Compliments of Weather Underground - 3.5 mb